La Grande Rivière Airport
CYGL : rendu visible

Aérodrome :











RETROUVEZ-NOUS SUR...

 
LOGIN :

S'inscrire | Disclaimer

   EN    FR    IT 

 









Légende :    VFR   VFR Marginal   IFR   IFR Intensif   IFR Très Intensif
Visi : 
Plafond : 
>= 8 km
>= 3000ft
5 à 8 km
1000 à 3000 ft
1500m à 5 km
500 à 1000 ft
800 à 1500m
200 à 500 ft
< 800m
< 200 ft
Symboles :   Orages  Brouillard  Fortes neiges  Fortes précipitations  Vent > 20 kt






- Altitude de l'aérodrome : 639 ft
- Code IATA : YGL


CYGL - La Grande Rivière

DERNIER METAR :
  • 210000Z 18005KT 6SM -SN OVC030 M03/M05 A2998 RMK SC8 SLP168

METARs EXPIRÉS :
  • 202322Z 19007KT 15SM -SN SCT047 OVC096 M03/M05 A2998 RMK SC3AC5 SLP168
  • 202300Z 19006KT 15SM SCT047 OVC096 M03/M05 A2998 RMK SC3AC5 SLP169
  • 202200Z 19003KT 15SM FEW062 BKN095 M03/M05 A2997 RMK SC2AC4 SLP166

TAF TAF CYGL
Valide du 21 à 00h jusqu'au 22 à 00h UTC


202340Z 2100/2124 19007KT P6SM SCT012 OVC030
TEMPO 2100/2102 5SM -SN BR BKN006 OVC012
PROB30 2100/2102 4SM -FZDZ BR
FM210200 19007KT 4SM -SN BR OVC006
TEMPO 2102/2111 P6SM NSW OVC010
PROB30 2102/2111 1SM -FZDZ BR OVC002
FM211100 20010KT 1SM -SN OVC006
BECMG 2114/2116 27010KT RMK NXT FCST BY 210600Z



MET'MAP, la Météo Aéronautique d'un coup d'oeil ! - Copyright ORBIFLY Décembre 2007 - Disclaimer

ORBIFLY MET'MAP TEAM :

Programmation & Développement : Alexandra Zaïnal
Conception & Développement : Baudouin d'Aumeries
Co-Programmation & Développement : Marc-Olivier Méhu
Soutien technique & logistique : Manuel Goepfert

Contact : metmap@orbifly.com




SOURCES & CREDITS :

   NOAA       Earth
Advisory